Time;durP1;ratioP1;P1;durP2;ratioP2;P2;SDS_P1;SDS_P2;PMS_P1;PMS_P2;Temp;Humidity;BMP_temperature;BMP_pressure;BME280_temperature;BME280_humidity;BME280_pressure;Samples;Min_cycle;Max_cycle;Signal;HPM_P1;HPM_P2
2021/04/16 00:00:53;;;;;;;4.60;3.13;;;8.30;43.80;;;;;;5027409;28;20455;-82
2021/04/16 00:03:20;;;;;;;4.28;3.53;;;8.20;43.70;;;;;;5027612;28;20071;-81
2021/04/16 00:05:46;;;;;;;4.88;3.38;;;8.20;43.80;;;;;;5027002;28;20064;-80
2021/04/16 00:08:24;;;;;;;5.30;3.53;;;8.10;43.60;;;;;;5026383;28;20025;-80
2021/04/16 00:11:20;;;;;;;4.15;3.20;;;8.10;43.70;;;;;;5026769;28;20061;-80
2021/04/16 00:13:46;;;;;;;5.55;3.25;;;8.10;43.80;;;;;;5027192;28;20034;-81
2021/04/16 00:16:18;;;;;;;4.97;3.28;;;8.00;43.60;;;;;;5027275;28;20084;-80
2021/04/16 00:18:44;;;;;;;5.70;3.75;;;8.00;43.70;;;;;;5027353;28;20038;-81
2021/04/16 00:21:10;;;;;;;4.15;3.38;;;7.90;43.60;;;;;;5027040;28;20060;-80
2021/04/16 00:23:36;;;;;;;7.03;3.47;;;7.90;43.70;;;;;;5025712;28;20044;-82
2021/04/16 00:26:02;;;;;;;7.13;3.13;;;7.80;43.50;;;;;;5008680;28;20025;-82
2021/04/16 00:28:29;;;;;;;3.90;3.28;;;7.80;43.60;;;;;;4992402;28;20033;-82
2021/04/16 00:31:23;;;;;;;5.95;3.72;;;7.70;43.50;;;;;;5026397;28;20535;-82
2021/04/16 00:33:49;;;;;;;4.28;3.70;;;7.70;43.70;;;;;;5025312;28;20130;-81
2021/04/16 00:36:16;;;;;;;6.82;3.20;;;7.70;43.60;;;;;;5009026;28;20033;-80
2021/04/16 00:38:43;;;;;;;7.38;3.40;;;7.70;43.70;;;;;;5009229;28;20481;-84
2021/04/16 00:41:14;;;;;;;3.63;3.25;;;7.60;43.60;;;;;;5029502;28;20060;-82
2021/04/16 00:43:40;;;;;;;3.53;3.22;;;7.60;43.70;;;;;;5011665;28;20111;-84
2021/04/16 00:46:11;;;;;;;5.60;3.80;;;7.50;43.60;;;;;;5030054;28;20524;-81
2021/04/16 00:48:44;;;;;;;4.45;3.28;;;7.60;43.80;;;;;;5011749;28;20037;-81
2021/04/16 00:51:22;;;;;;;3.53;3.22;;;7.50;43.70;;;;;;5029361;28;20576;-82
2021/04/16 00:53:48;;;;;;;5.15;3.67;;;7.50;43.70;;;;;;5028059;28;20057;-80
2021/04/16 00:56:15;;;;;;;4.35;3.22;;;7.40;43.50;;;;;;5029101;28;20025;-82
2021/04/16 00:58:41;;;;;;;4.25;3.58;;;7.40;43.60;;;;;;5029476;28;20072;-81
2021/04/16 01:01:07;;;;;;;4.10;3.35;;;7.40;43.70;;;;;;5028330;28;20037;-80
2021/04/16 01:03:34;;;;;;;4.93;3.45;;;7.30;43.50;;;;;;5028935;28;20034;-81
2021/04/16 01:06:04;;;;;;;4.35;3.63;;;7.30;43.60;;;;;;5030880;28;20079;-81
2021/04/16 01:08:31;;;;;;;3.83;3.20;;;7.30;43.70;;;;;;5028932;28;20290;-80
2021/04/16 01:10:57;;;;;;;6.13;3.92;;;7.20;43.60;;;;;;5028940;28;20055;-80
2021/04/16 01:13:24;;;;;;;5.35;3.97;;;7.20;43.60;;;;;;5028856;28;20037;-79
2021/04/16 01:15:57;;;;;;;6.18;3.55;;;7.10;43.50;;;;;;5028710;28;20489;-79
2021/04/16 01:18:27;;;;;;;3.92;3.53;;;7.10;43.60;;;;;;5011227;28;20473;-82
2021/04/16 01:20:56;;;;;;;4.25;3.33;;;7.10;43.60;;;;;;5029429;28;20032;-82
2021/04/16 01:23:40;;;;;;;4.18;3.60;;;7.00;44.00;;;;;;5011116;28;20030;-82
2021/04/16 01:26:08;;;;;;;4.45;3.30;;;7.00;43.60;;;;;;5011078;28;20043;-83
2021/04/16 01:28:34;;;;;;;4.65;3.55;;;7.00;43.60;;;;;;5010706;28;20026;-83
2021/04/16 01:31:08;;;;;;;5.00;3.22;;;6.90;43.40;;;;;;5025585;28;20148;-82
2021/04/16 01:33:36;;;;;;;5.15;3.45;;;6.90;43.50;;;;;;5023627;28;20068;-83
2021/04/16 01:36:15;;;;;;;4.57;3.70;;;6.80;43.40;;;;;;5019417;28;20034;-80
2021/04/16 01:38:42;;;;;;;4.50;4.00;;;6.80;43.50;;;;;;5012225;28;20052;-81
2021/04/16 01:41:14;;;;;;;4.50;3.47;;;6.80;43.50;;;;;;5029745;28;20034;-80
2021/04/16 01:43:44;;;;;;;3.90;3.47;;;6.80;43.60;;;;;;5012142;28;20462;-81
2021/04/16 01:46:18;;;;;;;4.85;3.95;;;6.70;43.40;;;;;;5010468;28;20029;-81
2021/04/16 01:48:47;;;;;;;4.30;3.42;;;6.70;43.50;;;;;;5000134;28;20125;-82
2021/04/16 01:51:17;;;;;;;5.63;3.92;;;6.70;43.50;;;;;;5020671;28;20377;-83
2021/04/16 01:53:43;;;;;;;5.63;4.50;;;6.60;43.40;;;;;;5012440;28;20117;-83
2021/04/16 01:56:09;;;;;;;5.10;4.30;;;6.60;43.50;;;;;;5013584;28;20030;-82
2021/04/16 01:58:36;;;;;;;5.22;3.90;;;6.60;43.50;;;;;;5011875;28;20142;-82
2021/04/16 02:01:04;;;;;;;5.63;4.53;;;6.60;43.60;;;;;;5013044;28;20026;-83
2021/04/16 02:03:30;;;;;;;5.80;4.57;;;6.50;43.50;;;;;;5013418;28;20037;-83
2021/04/16 02:05:56;;;;;;;5.53;4.20;;;6.50;43.50;;;;;;5013272;28;20034;-84
2021/04/16 02:08:22;;;;;;;7.18;3.95;;;6.50;43.60;;;;;;5012076;28;20057;-85
2021/04/16 02:10:48;;;;;;;5.72;4.00;;;6.40;43.40;;;;;;5011558;28;20060;-82
2021/04/16 02:13:14;;;;;;;7.20;4.07;;;6.40;43.50;;;;;;5011968;28;20033;-81
2021/04/16 02:15:41;;;;;;;5.53;3.80;;;6.40;43.50;;;;;;5012491;28;20057;-80
2021/04/16 02:18:07;;;;;;;4.78;4.07;;;6.30;43.40;;;;;;5012938;28;20105;-83
2021/04/16 02:20:34;;;;;;;4.70;4.30;;;6.30;44.00;;;;;;5013273;28;20030;-83
2021/04/16 02:23:00;;;;;;;3.63;3.10;;;6.20;43.30;;;;;;5012945;28;20034;-82
2021/04/16 02:25:27;;;;;;;5.78;3.97;;;6.30;43.60;;;;;;5012322;28;20030;-82
2021/04/16 02:27:53;;;;;;;6.25;3.92;;;6.20;43.50;;;;;;5013591;28;20038;-83
2021/04/16 02:30:29;;;;;;;5.15;3.63;;;6.20;43.50;;;;;;5012595;28;20084;-79
2021/04/16 02:32:55;;;;;;;4.70;3.80;;;6.10;43.30;;;;;;5012610;28;20038;-83
2021/04/16 02:35:21;;;;;;;6.72;3.85;;;6.10;43.40;;;;;;5012331;28;20032;-83
2021/04/16 02:37:48;;;;;;;7.88;3.78;;;6.10;43.30;;;;;;5012478;28;20128;-83
2021/04/16 02:40:17;;;;;;;5.57;4.15;;;6.10;43.40;;;;;;5011935;28;20072;-82
2021/04/16 02:42:44;;;;;;;3.97;3.40;;;6.00;43.30;;;;;;5012650;28;20037;-82
2021/04/16 02:45:13;;;;;;;5.28;4.22;;;6.00;43.40;;;;;;5011211;28;20032;-82
2021/04/16 02:47:39;;;;;;;5.35;3.67;;;6.00;43.50;;;;;;5011171;28;20370;-84
2021/04/16 02:50:08;;;;;;;8.43;3.75;;;6.00;43.50;;;;;;5012176;28;20140;-81
2021/04/16 02:52:34;;;;;;;5.18;4.07;;;5.90;43.40;;;;;;5012028;28;20042;-82
2021/04/16 02:55:00;;;;;;;4.43;3.30;;;5.90;43.40;;;;;;5011234;28;20077;-81
2021/04/16 02:57:27;;;;;;;4.70;3.50;;;5.90;43.50;;;;;;5012439;28;20052;-79
2021/04/16 02:59:53;;;;;;;5.95;3.65;;;5.90;43.50;;;;;;4994128;28;20056;-81
2021/04/16 03:02:19;;;;;;;5.45;3.53;;;5.80;43.30;;;;;;5010456;28;20493;-82
2021/04/16 03:04:45;;;;;;;3.85;3.40;;;5.80;43.40;;;;;;5012642;28;20033;-84
2021/04/16 03:07:12;;;;;;;6.47;3.88;;;5.80;43.40;;;;;;5011410;28;20409;-82
2021/04/16 03:09:38;;;;;;;5.25;3.58;;;5.70;43.30;;;;;;5011736;28;20057;-82
2021/04/16 03:12:04;;;;;;;4.53;3.72;;;5.70;43.40;;;;;;5010507;28;20490;-84
2021/04/16 03:14:31;;;;;;;4.28;3.33;;;5.70;43.40;;;;;;5011041;28;20033;-83
2021/04/16 03:16:56;;;;;;;3.50;3.20;;;5.70;43.40;;;;;;5012127;28;20444;-83
2021/04/16 03:19:22;;;;;;;3.70;3.28;;;5.60;43.30;;;;;;5012278;28;20038;-83
2021/04/16 03:21:48;;;;;;;4.47;3.50;;;5.60;43.30;;;;;;5010543;28;20144;-83
2021/04/16 03:24:14;;;;;;;3.92;3.50;;;5.60;43.50;;;;;;5010802;28;20036;-83
2021/04/16 03:26:40;;;;;;;4.00;3.58;;;5.50;43.20;;;;;;4994290;28;20041;-84
2021/04/16 03:29:06;;;;;;;4.03;3.45;;;5.50;43.30;;;;;;5010665;28;20025;-84
2021/04/16 03:31:33;;;;;;;4.47;3.35;;;5.50;43.30;;;;;;5010485;28;20394;-83
2021/04/16 03:34:00;;;;;;;4.65;3.47;;;5.40;43.10;;;;;;5012263;28;20108;-83
2021/04/16 03:36:27;;;;;;;4.53;3.13;;;5.40;43.20;;;;;;5011241;28;20073;-83
2021/04/16 03:38:53;;;;;;;4.47;3.50;;;5.40;43.20;;;;;;5010557;28;20030;-83
2021/04/16 03:41:20;;;;;;;3.05;2.75;;;5.40;43.30;;;;;;5010149;28;20026;-82
2021/04/16 03:43:47;;;;;;;3.70;3.30;;;5.30;43.10;;;;;;5010949;28;20030;-82
2021/04/16 03:46:13;;;;;;;5.05;3.72;;;5.30;43.20;;;;;;4994142;28;20059;-81
2021/04/16 03:48:39;;;;;;;6.20;3.45;;;5.30;43.30;;;;;;5010319;28;20516;-82
2021/04/16 03:51:06;;;;;;;5.75;3.60;;;5.30;43.30;;;;;;5010131;28;20118;-82
2021/04/16 03:53:33;;;;;;;3.83;3.35;;;5.30;43.40;;;;;;5011715;28;20057;-83
2021/04/16 03:55:59;;;;;;;4.32;3.58;;;5.20;43.20;;;;;;4977302;28;20069;-82
2021/04/16 03:58:25;;;;;;;4.53;3.40;;;5.20;43.20;;;;;;5010128;28;20500;-81
2021/04/16 04:00:51;;;;;;;3.50;2.97;;;5.20;43.30;;;;;;5011415;28;20030;-83
2021/04/16 04:03:17;;;;;;;4.72;3.75;;;5.10;43.10;;;;;;5010306;28;20037;-83
2021/04/16 04:05:43;;;;;;;3.83;3.45;;;5.10;43.20;;;;;;4993802;28;20062;-83
2021/04/16 04:08:09;;;;;;;3.88;3.20;;;5.10;43.20;;;;;;4994121;28;20493;-83
2021/04/16 04:10:36;;;;;;;5.05;3.08;;;5.10;43.20;;;;;;4993230;28;20510;-83
2021/04/16 04:13:08;;;;;;;3.38;3.05;;;5.10;43.20;;;;;;5011501;28;20034;-83
2021/04/16 04:15:34;;;;;;;5.00;3.72;;;5.00;43.10;;;;;;5014491;28;20113;-84
2021/04/16 04:18:01;;;;;;;4.25;2.88;;;5.00;43.20;;;;;;5015136;28;20053;-83
2021/04/16 04:20:30;;;;;;;3.83;3.10;;;5.00;43.20;;;;;;5015521;28;20125;-83
2021/04/16 04:22:57;;;;;;;3.22;2.92;;;4.90;43.00;;;;;;5013856;28;20436;-83
2021/04/16 04:25:25;;;;;;;3.40;3.10;;;4.90;43.10;;;;;;5013858;28;20049;-82
2021/04/16 04:27:51;;;;;;;4.25;2.95;;;4.90;43.10;;;;;;5013379;28;20040;-83
2021/04/16 04:30:20;;;;;;;3.72;3.35;;;4.90;43.10;;;;;;4981039;28;20037;-82
2021/04/16 04:32:46;;;;;;;3.75;3.42;;;4.80;43.00;;;;;;5013362;28;20034;-83
2021/04/16 04:35:13;;;;;;;4.22;3.25;;;4.80;43.00;;;;;;5013418;28;20088;-82
2021/04/16 04:37:39;;;;;;;6.13;3.50;;;4.80;43.10;;;;;;5013405;28;20100;-83
2021/04/16 04:40:08;;;;;;;3.97;2.88;;;4.80;43.10;;;;;;5014935;28;20036;-82
2021/04/16 04:42:34;;;;;;;3.75;3.45;;;4.70;42.90;;;;;;5015837;28;20021;-83
2021/04/16 04:45:00;;;;;;;4.07;3.38;;;4.70;43.00;;;;;;5016198;28;20095;-82
2021/04/16 04:47:27;;;;;;;3.53;2.95;;;4.70;43.10;;;;;;5029977;28;20707;-80
2021/04/16 04:49:53;;;;;;;4.43;3.08;;;4.70;43.10;;;;;;5027854;28;20036;-83
2021/04/16 04:52:27;;;;;;;3.90;3.50;;;4.70;43.10;;;;;;5030427;28;20033;-83
2021/04/16 04:54:56;;;;;;;3.75;2.67;;;4.70;43.20;;;;;;5025052;28;20030;-82
2021/04/16 04:57:24;;;;;;;5.00;3.45;;;4.60;43.00;;;;;;5026196;28;20026;-82
2021/04/16 04:59:51;;;;;;;4.25;3.67;;;4.60;43.00;;;;;;5029086;28;20103;-81
2021/04/16 05:02:20;;;;;;;3.13;2.60;;;4.60;43.00;;;;;;5031459;28;20026;-83
2021/04/16 05:04:46;;;;;;;5.30;3.10;;;4.60;43.10;;;;;;5026621;28;20264;-80
2021/04/16 05:07:12;;;;;;;3.75;3.20;;;4.60;43.10;;;;;;5027977;28;20033;-82
2021/04/16 05:09:38;;;;;;;5.30;3.28;;;4.50;42.90;;;;;;5011033;28;20545;-82
2021/04/16 05:12:05;;;;;;;3.25;2.95;;;4.50;43.00;;;;;;5025645;28;20061;-79
2021/04/16 05:14:31;;;;;;;3.55;3.17;;;4.50;43.00;;;;;;5008169;28;20108;-83
2021/04/16 05:16:57;;;;;;;3.80;3.50;;;4.50;43.00;;;;;;5014988;28;20529;-81
2021/04/16 05:19:24;;;;;;;3.88;2.97;;;4.40;42.90;;;;;;5024664;28;20029;-81
2021/04/16 05:21:52;;;;;;;3.67;3.00;;;4.40;42.90;;;;;;5000175;28;20044;-83
2021/04/16 05:24:18;;;;;;;4.10;3.35;;;4.40;42.90;;;;;;5010434;28;20500;-80
2021/04/16 05:26:44;;;;;;;2.80;2.55;;;4.40;43.00;;;;;;5005834;28;20457;-83
2021/04/16 05:29:10;;;;;;;3.30;3.05;;;4.40;43.00;;;;;;5016894;28;20081;-85
2021/04/16 05:31:36;;;;;;;3.30;2.85;;;4.40;43.00;;;;;;5008952;28;20046;-82
2021/04/16 05:34:04;;;;;;;5.13;3.95;;;4.40;43.10;;;;;;5005004;28;20072;-80
2021/04/16 05:36:30;;;;;;;6.10;3.08;;;4.40;43.10;;;;;;5007935;28;20120;-82
2021/04/16 05:38:56;;;;;;;3.20;2.92;;;4.40;43.10;;;;;;5012007;28;20037;-82
2021/04/16 05:41:22;;;;;;;3.67;2.88;;;4.30;42.90;;;;;;5002579;28;20032;-81
2021/04/16 05:43:49;;;;;;;4.95;3.42;;;4.40;43.20;;;;;;5026659;28;20503;-83
2021/04/16 05:46:15;;;;;;;3.22;2.92;;;4.40;43.50;;;;;;5029123;28;20022;-81
2021/04/16 05:48:41;;;;;;;3.22;2.92;;;4.40;43.60;;;;;;5028786;28;20128;-82
2021/04/16 05:51:08;;;;;;;5.47;3.88;;;4.50;43.80;;;;;;5010215;28;20048;-80
2021/04/16 05:53:34;;;;;;;4.35;3.08;;;4.50;43.80;;;;;;4996838;28;20036;-82
2021/04/16 05:56:00;;;;;;;5.55;3.65;;;4.50;43.80;;;;;;4991509;28;20030;-82
2021/04/16 05:58:26;;;;;;;3.97;3.33;;;4.50;43.80;;;;;;5024545;28;20516;-81
2021/04/16 06:00:52;;;;;;;4.07;3.58;;;4.60;44.00;;;;;;5027983;28;20060;-81
2021/04/16 06:03:19;;;;;;;6.10;3.55;;;4.60;44.00;;;;;;4998504;28;20032;-80
2021/04/16 06:05:46;;;;;;;4.20;3.80;;;4.70;44.90;;;;;;4991291;28;20060;-81
2021/04/16 06:08:17;;;;;;;3.85;3.03;;;4.70;44.20;;;;;;4990304;28;20100;-81
2021/04/16 06:10:43;;;;;;;3.78;3.47;;;4.80;44.40;;;;;;4998241;28;20048;-79
2021/04/16 06:13:09;;;;;;;4.00;3.60;;;4.90;44.50;;;;;;5020664;28;20030;-79
2021/04/16 06:15:35;;;;;;;3.72;3.22;;;4.90;44.50;;;;;;4988607;28;20057;-79
2021/04/16 06:18:01;;;;;;;5.10;3.78;;;5.00;44.70;;;;;;5010356;28;20523;-80
2021/04/16 06:20:28;;;;;;;4.53;3.67;;;5.10;44.90;;;;;;4991675;28;20035;-81
2021/04/16 06:22:56;;;;;;;4.57;3.88;;;5.20;45.00;;;;;;5024348;28;20040;-79
2021/04/16 06:25:26;;;;;;;3.55;3.25;;;5.30;45.10;;;;;;5026348;28;20048;-79
2021/04/16 06:27:52;;;;;;;5.43;3.92;;;5.50;45.50;;;;;;5007680;28;20405;-79
2021/04/16 06:30:19;;;;;;;4.72;4.05;;;5.50;45.40;;;;;;5025845;28;20507;-80
2021/04/16 06:33:06;;;;;;;4.30;3.90;;;5.70;45.70;;;;;;5009011;28;20084;-79
2021/04/16 06:35:34;;;;;;;4.20;3.80;;;5.90;46.10;;;;;;5009175;28;20033;-79
2021/04/16 06:38:00;;;;;;;5.55;3.55;;;6.00;46.00;;;;;;5026153;28;20029;-79
2021/04/16 06:40:28;;;;;;;4.70;4.30;;;6.20;46.30;;;;;;5029093;28;20405;-79
2021/04/16 06:42:54;;;;;;;3.97;3.60;;;6.40;46.60;;;;;;5004242;28;20603;-80
2021/04/16 06:45:31;;;;;;;4.43;3.63;;;6.60;46.80;;;;;;5011305;28;20443;-80
2021/04/16 06:48:02;;;;;;;4.93;4.40;;;6.80;47.20;;;;;;5025419;28;20498;-81
2021/04/16 06:50:39;;;;;;;4.75;3.63;;;7.00;47.30;;;;;;5008927;28;20033;-81
2021/04/16 06:53:29;;;;;;;5.10;4.15;;;7.20;47.60;;;;;;5009373;28;20037;-80
2021/04/16 06:56:36;;;;;;;4.35;3.88;;;7.50;48.00;;;;;;4966334;28;20049;-77
2021/04/16 06:59:27;;;;;;;4.63;3.33;;;7.80;48.20;;;;;;5009370;28;20041;-77
2021/04/16 07:02:16;;;;;;;4.70;3.70;;;8.00;48.30;;;;;;5046612;28;20541;-78
2021/04/16 07:04:55;;;;;;;6.18;3.60;;;8.30;48.60;;;;;;4998759;28;20034;-81
2021/04/16 07:07:30;;;;;;;7.07;4.18;;;8.50;48.80;;;;;;5006114;28;20021;-80
2021/04/16 07:10:11;;;;;;;4.72;3.70;;;8.80;49.20;;;;;;5024915;28;20036;-81
2021/04/16 07:12:37;;;;;;;4.20;3.72;;;9.00;49.40;;;;;;5008904;28;20048;-80
2021/04/16 07:15:09;;;;;;;6.18;4.15;;;9.30;49.60;;;;;;4989918;28;20076;-78
2021/04/16 07:17:39;;;;;;;4.05;3.67;;;9.50;49.80;;;;;;4989555;28;20313;-78
2021/04/16 07:20:08;;;;;;;4.53;3.70;;;9.70;49.80;;;;;;5008823;28;20029;-79
2021/04/16 07:22:47;;;;;;;3.97;3.60;;;10.00;50.00;;;;;;5026792;28;20103;-79
2021/04/16 07:25:41;;;;;;;4.07;3.67;;;10.20;50.00;;;;;;5008421;28;20041;-79
2021/04/16 07:28:31;;;;;;;4.55;4.15;;;10.40;49.90;;;;;;5008646;28;20532;-79
2021/04/16 07:30:57;;;;;;;5.95;3.92;;;10.60;49.90;;;;;;5008566;28;20044;-81
2021/04/16 07:33:28;;;;;;;4.45;4.05;;;10.80;49.80;;;;;;4991507;28;20045;-81
2021/04/16 07:36:21;;;;;;;5.38;4.00;;;10.90;49.70;;;;;;5008282;28;20116;-80
2021/04/16 07:39:27;;;;;;;3.92;3.60;;;11.00;49.50;;;;;;5024899;28;20026;-79
2021/04/16 07:42:14;;;;;;;5.05;4.32;;;11.10;49.40;;;;;;4968249;28;20034;-80
2021/04/16 07:44:56;;;;;;;6.03;3.90;;;11.20;49.40;;;;;;4977661;28;20117;-81
2021/04/16 07:47:25;;;;;;;4.75;4.30;;;11.30;49.40;;;;;;4989017;28;20038;-81
2021/04/16 07:50:22;;;;;;;5.88;4.68;;;11.50;49.50;;;;;;5028250;28;20030;-80
2021/04/16 07:52:49;;;;;;;7.45;4.68;;;11.60;49.20;;;;;;5029290;28;20107;-81
2021/04/16 07:55:33;;;;;;;4.43;4.03;;;11.80;49.40;;;;;;4996128;28;20374;-80
2021/04/16 07:58:21;;;;;;;4.72;4.05;;;12.00;49.30;;;;;;5009030;28;20033;-81
2021/04/16 08:00:50;;;;;;;5.40;4.88;;;12.20;49.20;;;;;;5010129;28;20037;-81
2021/04/16 08:03:24;;;;;;;6.43;4.93;;;12.30;49.10;;;;;;4992700;28;20143;-78
2021/04/16 08:05:54;;;;;;;5.25;4.70;;;12.50;49.10;;;;;;5010589;28;20033;-79
2021/04/16 08:08:34;;;;;;;5.07;4.60;;;12.60;48.90;;;;;;4992366;28;20153;-79
2021/04/16 08:11:00;;;;;;;5.43;4.93;;;12.90;48.90;;;;;;4998177;28;20078;-81
2021/04/16 08:13:28;;;;;;;7.90;4.78;;;12.90;48.70;;;;;;4989347;28;20058;-80
2021/04/16 08:16:11;;;;;;;5.45;4.07;;;13.10;48.70;;;;;;4991963;28;20445;-80
2021/04/16 08:18:39;;;;;;;6.50;4.65;;;13.20;48.40;;;;;;4970040;28;20065;-81
2021/04/16 08:21:05;;;;;;;5.75;5.07;;;13.20;48.20;;;;;;4975841;28;20543;-79
2021/04/16 08:23:51;;;;;;;5.90;4.22;;;13.30;48.00;;;;;;5001764;28;20030;-80
2021/04/16 08:26:20;;;;;;;5.22;4.30;;;13.30;47.60;;;;;;5009050;28;20436;-79
2021/04/16 08:28:49;;;;;;;5.00;4.45;;;13.30;47.60;;;;;;5008120;28;20121;-80
2021/04/16 08:31:25;;;;;;;6.03;4.97;;;13.20;47.40;;;;;;5009802;28;20444;-83
2021/04/16 08:34:03;;;;;;;7.60;5.82;;;13.10;47.10;;;;;;4975786;28;20450;-80
2021/04/16 08:36:33;;;;;;;6.28;5.68;;;13.00;46.80;;;;;;5009794;28;20478;-81
2021/04/16 08:39:01;;;;;;;9.35;6.55;;;12.90;46.50;;;;;;4992611;28;20030;-80
2021/04/16 08:41:31;;;;;;;12.25;7.10;;;12.80;46.30;;;;;;4974742;28;20045;-79
2021/04/16 08:44:06;;;;;;;7.03;6.32;;;12.60;46.00;;;;;;4991876;28;20038;-81
2021/04/16 08:46:37;;;;;;;7.13;5.72;;;12.50;45.80;;;;;;4992531;28;20476;-80
2021/04/16 08:49:11;;;;;;;10.05;6.30;;;12.40;45.80;;;;;;4988779;28;20057;-79
2021/04/16 08:51:40;;;;;;;;;;;12.30;45.70;;;;;;4989068;28;20100;-79
2021/04/16 08:54:16;;;;;;;7.70;5.78;;;12.30;46.00;;;;;;4973320;28;20032;-79
2021/04/16 08:57:09;;;;;;;6.63;5.47;;;12.20;45.80;;;;;;4976424;28;20481;-79
2021/04/16 09:00:16;;;;;;;9.70;6.72;;;12.10;45.70;;;;;;4971694;28;20042;-79
2021/04/16 09:02:57;;;;;;;7.30;6.18;;;12.10;45.80;;;;;;4976714;28;20065;-79
2021/04/16 09:05:36;;;;;;;7.95;5.97;;;12.10;45.90;;;;;;4991613;28;20091;-79
2021/04/16 09:08:08;;;;;;;7.88;5.30;;;12.10;45.90;;;;;;4974656;28;20076;-79
2021/04/16 09:10:38;;;;;;;6.05;5.45;;;12.10;45.90;;;;;;4974918;28;20104;-79
2021/04/16 09:13:06;;;;;;;6.18;5.45;;;12.10;45.90;;;;;;4991095;28;20044;-79
2021/04/16 09:15:32;;;;;;;10.32;5.75;;;12.10;45.90;;;;;;4991935;28;20037;-79
2021/04/16 09:17:58;;;;;;;6.60;5.60;;;12.10;45.90;;;;;;4975455;28;20026;-79
2021/04/16 09:20:33;;;;;;;5.68;5.13;;;12.10;45.90;;;;;;4975162;28;20037;-79
2021/04/16 09:23:17;;;;;;;6.60;5.88;;;12.20;45.90;;;;;;4958780;28;20034;-78
2021/04/16 09:25:50;;;;;;;6.15;5.30;;;12.30;46.00;;;;;;4975009;28;20092;-79
2021/04/16 09:28:22;;;;;;;8.30;5.53;;;12.30;45.80;;;;;;4990921;28;20042;-78
2021/04/16 09:30:49;;;;;;;6.13;4.75;;;12.30;45.80;;;;;;4990889;28;20076;-78
2021/04/16 09:33:24;;;;;;;6.25;5.53;;;12.30;45.80;;;;;;4991033;28;20482;-79
2021/04/16 09:36:06;;;;;;;5.63;5.13;;;12.30;45.70;;;;;;4990870;28;20052;-79
2021/04/16 09:38:57;;;;;;;5.80;5.00;;;12.30;45.70;;;;;;5007276;28;20038;-78
2021/04/16 09:41:25;;;;;;;5.70;5.10;;;12.40;45.90;;;;;;4974718;28;20025;-81
2021/04/16 09:43:57;;;;;;;5.82;4.97;;;12.50;46.10;;;;;;4990558;28;20509;-78
2021/04/16 09:46:34;;;;;;;6.10;4.47;;;12.50;46.00;;;;;;4990507;28;20040;-78
2021/04/16 09:49:10;;;;;;;7.50;4.65;;;12.60;46.00;;;;;;4974279;28;20026;-81
2021/04/16 09:51:45;;;;;;;5.50;4.95;;;12.80;46.30;;;;;;4974628;28;20045;-79
2021/04/16 09:54:20;;;;;;;5.13;4.63;;;12.80;46.10;;;;;;4975099;28;20489;-79
2021/04/16 09:57:01;;;;;;;8.10;4.30;;;12.90;46.30;;;;;;4991087;28;20026;-79
2021/04/16 09:59:38;;;;;;;8.68;5.18;;;13.10;46.40;;;;;;4990313;28;20103;-78
2021/04/16 10:02:13;;;;;;;4.80;4.30;;;13.30;46.70;;;;;;4974599;28;20033;-80
2021/04/16 10:05:08;;;;;;;6.15;4.28;;;13.40;46.60;;;;;;4974261;28;20489;-79
2021/04/16 10:07:43;;;;;;;5.70;4.28;;;13.60;46.70;;;;;;4974090;28;20088;-79
2021/04/16 10:10:31;;;;;;;5.28;4.20;;;13.70;46.70;;;;;;4975489;28;20033;-79
2021/04/16 10:13:13;;;;;;;6.00;4.28;;;13.80;46.70;;;;;;5009260;28;20041;-80
2021/04/16 10:15:43;;;;;;;4.60;3.97;;;14.00;47.00;;;;;;5027882;28;20036;-80
2021/04/16 10:18:17;;;;;;;5.57;4.00;;;14.10;47.00;;;;;;5027744;28;20124;-79
2021/04/16 10:21:20;;;;;;;4.53;4.10;;;14.20;47.00;;;;;;5026579;28;20120;-78
2021/04/16 10:23:51;;;;;;;4.32;3.92;;;14.30;47.00;;;;;;5019798;28;20041;-79
2021/04/16 12:41:02;;;;;;;2.58;1.98;;;16.30;45.50;;;;;;5017703;28;20479;-77
2021/04/16 12:43:28;;;;;;;2.70;2.03;;;16.30;45.60;;;;;;5029152;28;20033;-79
2021/04/16 12:45:56;;;;;;;2.30;2.10;;;16.40;45.80;;;;;;5027659;28;20032;-77
2021/04/16 12:48:24;;;;;;;2.35;1.95;;;16.60;46.00;;;;;;5027947;28;20033;-78
2021/04/16 12:50:51;;;;;;;2.30;2.10;;;16.80;46.20;;;;;;5011683;28;20377;-78
2021/04/16 12:53:18;;;;;;;3.20;2.40;;;17.00;46.30;;;;;;5027609;28;20128;-80
2021/04/16 12:55:44;;;;;;;2.35;2.03;;;17.30;46.60;;;;;;5011543;28;20033;-78
2021/04/16 12:58:27;;;;;;;4.10;2.42;;;17.50;46.60;;;;;;5011089;28;20057;-78
2021/04/16 13:00:55;;;;;;;3.90;2.10;;;17.80;46.90;;;;;;5011112;28;20040;-78
2021/04/16 13:03:35;;;;;;;2.72;1.90;;;18.00;47.00;;;;;;5003990;28;20121;-79
2021/04/16 13:06:02;;;;;;;2.30;1.95;;;18.10;46.90;;;;;;4993348;28;20485;-78
2021/04/16 13:08:28;;;;;;;3.38;1.90;;;18.30;47.10;;;;;;4997304;28;20348;-79
2021/04/16 13:10:54;;;;;;;2.28;2.05;;;18.40;47.20;;;;;;4994563;28;20404;-79
2021/04/16 13:13:20;;;;;;;2.67;1.98;;;18.60;47.30;;;;;;5010753;28;20546;-81
2021/04/16 13:15:48;;;;;;;2.15;1.70;;;18.80;47.40;;;;;;5010759;28;20534;-78
2021/04/16 13:18:27;;;;;;;2.90;2.05;;;18.90;47.40;;;;;;5028372;28;20033;-78
2021/04/16 13:20:54;;;;;;;2.00;1.80;;;19.00;47.30;;;;;;5025031;28;20340;-78
2021/04/16 13:23:20;;;;;;;1.60;1.50;;;19.00;47.30;;;;;;5020738;28;20033;-78
2021/04/16 13:25:46;;;;;;;3.47;1.75;;;19.10;47.40;;;;;;5010841;28;20119;-77
2021/04/16 13:28:12;;;;;;;2.00;1.80;;;19.20;47.60;;;;;;5010011;28;20221;-78
2021/04/16 13:30:39;;;;;;;2.35;1.63;;;19.30;47.70;;;;;;5010810;28;20512;-77
2021/04/16 13:33:18;;;;;;;2.75;1.92;;;19.40;47.60;;;;;;5010421;28;20388;-79
2021/04/16 13:35:48;;;;;;;2.67;1.77;;;19.50;47.60;;;;;;5009942;28;20056;-77
2021/04/16 13:38:21;;;;;;;2.35;1.63;;;19.50;47.50;;;;;;5028110;28;20268;-79
2021/04/16 13:40:48;;;;;;;2.00;1.80;;;19.50;47.40;;;;;;5028779;28;20033;-79
2021/04/16 13:43:14;;;;;;;1.67;1.58;;;19.50;47.40;;;;;;4993043;28;20132;-79
2021/04/16 13:45:40;;;;;;;1.70;1.60;;;19.50;47.40;;;;;;5009809;28;20076;-78
2021/04/16 13:48:07;;;;;;;4.88;2.00;;;19.60;47.50;;;;;;5009548;28;20030;-79
2021/04/16 13:50:34;;;;;;;2.08;1.88;;;19.60;47.40;;;;;;4993160;28;20041;-80
2021/04/16 13:53:03;;;;;;;2.08;1.83;;;19.60;47.30;;;;;;5009810;28;20049;-79
2021/04/16 13:55:29;;;;;;;7.13;2.10;;;19.50;47.10;;;;;;5005386;28;20405;-80
2021/04/16 13:57:55;;;;;;;2.25;2.05;;;19.50;47.10;;;;;;5018760;28;20124;-79
2021/04/16 14:00:24;;;;;;;2.20;1.92;;;19.50;47.10;;;;;;5027829;28;20225;-78
2021/04/16 14:02:57;;;;;;;3.30;2.13;;;19.60;47.30;;;;;;5027482;28;20025;-79
2021/04/16 14:05:28;;;;;;;2.07;1.60;;;19.80;47.50;;;;;;5027588;28;20440;-78
2021/04/16 14:07:58;;;;;;;2.28;2.08;;;20.00;47.70;;;;;;5027192;28;20057;-79
2021/04/16 14:10:25;;;;;;;1.60;1.50;;;20.10;47.70;;;;;;5009447;28;20432;-78
2021/04/16 14:12:52;;;;;;;1.70;1.60;;;20.30;47.80;;;;;;5026425;28;20048;-77
2021/04/16 14:15:19;;;;;;;1.65;1.55;;;20.50;47.80;;;;;;5027348;28;20057;-82
2021/04/16 14:17:49;;;;;;;2.22;2.03;;;20.50;47.60;;;;;;5009802;28;20022;-80
2021/04/16 14:20:25;;;;;;;1.63;1.52;;;20.50;47.40;;;;;;5027681;28;20404;-81
2021/04/16 14:22:52;;;;;;;2.05;1.60;;;20.50;47.50;;;;;;5009709;28;20404;-81
2021/04/16 14:25:29;;;;;;;2.30;1.85;;;20.50;47.40;;;;;;5027044;28;20049;-80
2021/04/16 14:27:55;;;;;;;2.20;1.75;;;20.50;47.40;;;;;;5027041;28;20038;-80
2021/04/16 14:30:28;;;;;;;1.95;1.80;;;20.50;47.50;;;;;;5009091;28;20033;-80
2021/04/16 14:32:56;;;;;;;2.05;1.50;;;20.50;47.40;;;;;;5027120;28;20037;-80
2021/04/16 14:35:26;;;;;;;3.35;1.75;;;20.60;47.60;;;;;;5027488;28;20552;-80
2021/04/16 14:37:53;;;;;;;1.85;1.70;;;20.60;47.30;;;;;;5026946;28;20025;-80
2021/04/16 14:40:20;;;;;;;1.90;1.73;;;20.70;47.40;;;;;;5026346;28;20021;-80
2021/04/16 14:42:47;;;;;;;2.05;1.77;;;20.70;47.30;;;;;;4992999;28;20026;-80
2021/04/16 14:45:24;;;;;;;1.67;1.55;;;20.70;47.20;;;;;;5009204;28;20060;-80
2021/04/16 14:47:50;;;;;;;1.70;1.60;;;20.70;47.00;;;;;;5006297;28;20033;-81
2021/04/16 14:50:16;;;;;;;2.03;1.40;;;20.70;47.10;;;;;;5009241;28;20112;-80
2021/04/16 14:52:43;;;;;;;1.73;1.40;;;20.70;47.60;;;;;;4993239;28;20046;-81
2021/04/16 14:55:17;;;;;;;3.80;1.60;;;20.70;47.00;;;;;;4993349;28;20029;-80
2021/04/16 14:57:43;;;;;;;2.00;1.75;;;20.70;46.90;;;;;;5009057;28;20029;-80
2021/04/16 15:00:18;;;;;;;1.70;1.48;;;20.60;46.80;;;;;;5008726;28;20120;-80
2021/04/16 15:02:44;;;;;;;1.40;1.30;;;20.60;46.60;;;;;;4992481;28;20501;-81
2021/04/16 15:05:12;;;;;;;1.70;1.60;;;20.60;46.70;;;;;;5009101;28;20496;-81
2021/04/16 15:07:46;;;;;;;1.83;1.42;;;20.60;46.60;;;;;;5009916;28;20068;-80
2021/04/16 15:10:18;;;;;;;2.17;1.48;;;20.60;46.60;;;;;;5026268;28;20412;-81
2021/04/16 15:12:45;;;;;;;2.13;1.40;;;20.60;46.60;;;;;;5026790;28;20045;-81
2021/04/16 15:15:46;;;;;;;1.40;1.30;;;20.60;46.60;;;;;;5009380;28;20060;-80
2021/04/16 15:18:14;;;;;;;2.72;1.50;;;20.70;46.70;;;;;;5008717;28;20037;-81
2021/04/16 15:20:41;;;;;;;2.05;1.48;;;20.80;46.80;;;;;;5008950;28;20075;-80
2021/04/16 15:23:10;;;;;;;3.47;1.48;;;20.90;46.90;;;;;;5008727;28;20061;-80
2021/04/16 15:25:39;;;;;;;1.63;1.50;;;20.90;46.80;;;;;;4993062;28;20040;-80